sensor_id;sensor_type;location;lat;lon;timestamp;P1;durP1;ratioP1;P2;durP2;ratioP2
5491;SDS011;2768;53.540;10.224;2022-08-16T00:04:24;14.47;;;13.17;;
5491;SDS011;2768;53.540;10.224;2022-08-16T00:10:18;13.40;;;12.10;;
5491;SDS011;2768;53.540;10.224;2022-08-16T00:16:16;12.60;;;11.40;;
5491;SDS011;2768;53.540;10.224;2022-08-16T00:22:30;16.37;;;11.00;;
5491;SDS011;2768;53.540;10.224;2022-08-16T00:28:23;13.27;;;12.27;;
5491;SDS011;2768;53.540;10.224;2022-08-16T00:34:21;12.27;;;11.17;;
5491;SDS011;2768;53.540;10.224;2022-08-16T00:40:36;12.90;;;11.80;;
5491;SDS011;2768;53.540;10.224;2022-08-16T00:46:35;12.40;;;11.33;;
5491;SDS011;2768;53.540;10.224;2022-08-16T00:52:52;12.13;;;11.03;;
5491;SDS011;2768;53.540;10.224;2022-08-16T00:58:46;12.07;;;11.00;;
5491;SDS011;2768;53.540;10.224;2022-08-16T01:04:41;11.17;;;10.37;;
5491;SDS011;2768;53.540;10.224;2022-08-16T01:10:56;12.73;;;11.63;;
5491;SDS011;2768;53.540;10.224;2022-08-16T01:16:52;13.13;;;11.83;;
5491;SDS011;2768;53.540;10.224;2022-08-16T01:22:49;11.77;;;10.67;;
5491;SDS011;2768;53.540;10.224;2022-08-16T01:28:51;12.17;;;11.17;;
5491;SDS011;2768;53.540;10.224;2022-08-16T01:34:47;10.97;;;10.17;;
5491;SDS011;2768;53.540;10.224;2022-08-16T01:40:48;11.93;;;10.77;;
5491;SDS011;2768;53.540;10.224;2022-08-16T01:46:47;11.50;;;10.50;;
5491;SDS011;2768;53.540;10.224;2022-08-16T01:52:42;11.57;;;10.33;;
5491;SDS011;2768;53.540;10.224;2022-08-16T01:59:02;12.33;;;10.90;;
5491;SDS011;2768;53.540;10.224;2022-08-16T02:05:08;10.13;;;9.23;;
5491;SDS011;2768;53.540;10.224;2022-08-16T02:11:03;11.77;;;10.77;;
5491;SDS011;2768;53.540;10.224;2022-08-16T02:17:01;12.70;;;11.63;;
5491;SDS011;2768;53.540;10.224;2022-08-16T02:23:00;13.30;;;12.10;;
5491;SDS011;2768;53.540;10.224;2022-08-16T02:28:56;12.73;;;11.63;;
5491;SDS011;2768;53.540;10.224;2022-08-16T02:34:52;12.90;;;11.70;;
5491;SDS011;2768;53.540;10.224;2022-08-16T02:40:49;13.87;;;12.70;;
5491;SDS011;2768;53.540;10.224;2022-08-16T02:46:45;13.30;;;12.10;;
5491;SDS011;2768;53.540;10.224;2022-08-16T02:52:44;14.70;;;13.30;;
5491;SDS011;2768;53.540;10.224;2022-08-16T02:58:41;15.03;;;13.53;;
5491;SDS011;2768;53.540;10.224;2022-08-16T03:04:36;15.27;;;13.97;;
5491;SDS011;2768;53.540;10.224;2022-08-16T03:10:45;16.00;;;14.50;;
5491;SDS011;2768;53.540;10.224;2022-08-16T03:16:45;16.30;;;15.00;;
5491;SDS011;2768;53.540;10.224;2022-08-16T03:22:56;14.17;;;12.97;;
5491;SDS011;2768;53.540;10.224;2022-08-16T03:28:52;16.20;;;14.80;;
5491;SDS011;2768;53.540;10.224;2022-08-16T03:34:48;17.07;;;15.47;;
5491;SDS011;2768;53.540;10.224;2022-08-16T03:40:42;17.57;;;15.97;;
5491;SDS011;2768;53.540;10.224;2022-08-16T03:46:36;16.67;;;15.23;;
5491;SDS011;2768;53.540;10.224;2022-08-16T03:52:45;18.33;;;15.77;;
5491;SDS011;2768;53.540;10.224;2022-08-16T03:58:40;17.77;;;16.00;;
5491;SDS011;2768;53.540;10.224;2022-08-16T04:04:35;17.53;;;15.93;;
5491;SDS011;2768;53.540;10.224;2022-08-16T04:10:30;18.07;;;16.40;;
5491;SDS011;2768;53.540;10.224;2022-08-16T04:16:28;19.57;;;16.50;;
5491;SDS011;2768;53.540;10.224;2022-08-16T04:22:44;20.03;;;17.03;;
5491;SDS011;2768;53.540;10.224;2022-08-16T04:28:41;17.00;;;15.23;;
5491;SDS011;2768;53.540;10.224;2022-08-16T04:34:55;18.27;;;16.60;;
5491;SDS011;2768;53.540;10.224;2022-08-16T04:40:52;19.33;;;17.60;;
5491;SDS011;2768;53.540;10.224;2022-08-16T04:46:50;19.33;;;17.50;;
5491;SDS011;2768;53.540;10.224;2022-08-16T04:52:54;22.07;;;19.97;;
5491;SDS011;2768;53.540;10.224;2022-08-16T04:58:51;21.40;;;19.40;;
5491;SDS011;2768;53.540;10.224;2022-08-16T05:04:49;21.63;;;19.30;;
5491;SDS011;2768;53.540;10.224;2022-08-16T05:10:43;17.67;;;15.97;;
5491;SDS011;2768;53.540;10.224;2022-08-16T05:16:38;20.20;;;18.30;;
5491;SDS011;2768;53.540;10.224;2022-08-16T05:22:36;20.67;;;18.47;;
5491;SDS011;2768;53.540;10.224;2022-08-16T05:28:37;21.73;;;19.73;;
5491;SDS011;2768;53.540;10.224;2022-08-16T05:34:31;18.80;;;16.90;;
5491;SDS011;2768;53.540;10.224;2022-08-16T05:40:27;22.80;;;20.63;;
5491;SDS011;2768;53.540;10.224;2022-08-16T05:46:21;22.77;;;20.47;;
5491;SDS011;2768;53.540;10.224;2022-08-16T05:52:28;22.93;;;20.73;;
5491;SDS011;2768;53.540;10.224;2022-08-16T05:58:26;24.20;;;21.83;;
5491;SDS011;2768;53.540;10.224;2022-08-16T06:04:25;21.20;;;19.30;;
5491;SDS011;2768;53.540;10.224;2022-08-16T06:10:35;20.47;;;18.77;;
5491;SDS011;2768;53.540;10.224;2022-08-16T06:16:50;25.13;;;22.63;;
5491;SDS011;2768;53.540;10.224;2022-08-16T06:22:45;25.57;;;21.63;;
5491;SDS011;2768;53.540;10.224;2022-08-16T06:28:58;26.93;;;24.30;;
5491;SDS011;2768;53.540;10.224;2022-08-16T06:35:00;27.33;;;24.47;;
5491;SDS011;2768;53.540;10.224;2022-08-16T06:40:57;26.87;;;24.30;;
5491;SDS011;2768;53.540;10.224;2022-08-16T06:46:52;22.57;;;20.33;;
5491;SDS011;2768;53.540;10.224;2022-08-16T06:52:47;24.93;;;22.50;;
5491;SDS011;2768;53.540;10.224;2022-08-16T06:58:52;23.07;;;20.70;;
5491;SDS011;2768;53.540;10.224;2022-08-16T07:04:49;21.07;;;19.07;;
5491;SDS011;2768;53.540;10.224;2022-08-16T07:10:46;23.80;;;21.50;;
5491;SDS011;2768;53.540;10.224;2022-08-16T07:16:41;24.10;;;21.73;;
5491;SDS011;2768;53.540;10.224;2022-08-16T07:22:34;24.43;;;21.80;;
5491;SDS011;2768;53.540;10.224;2022-08-16T07:28:51;22.60;;;16.67;;
5491;SDS011;2768;53.540;10.224;2022-08-16T07:34:46;21.77;;;19.43;;
5491;SDS011;2768;53.540;10.224;2022-08-16T07:40:42;20.43;;;18.47;;
5491;SDS011;2768;53.540;10.224;2022-08-16T07:46:58;17.63;;;16.03;;
5491;SDS011;2768;53.540;10.224;2022-08-16T07:52:52;19.83;;;17.73;;
5491;SDS011;2768;53.540;10.224;2022-08-16T07:58:47;25.47;;;15.77;;
5491;SDS011;2768;53.540;10.224;2022-08-16T08:04:47;17.17;;;15.40;;
5491;SDS011;2768;53.540;10.224;2022-08-16T08:10:41;15.17;;;10.90;;
5491;SDS011;2768;53.540;10.224;2022-08-16T08:16:34;14.13;;;9.50;;
5491;SDS011;2768;53.540;10.224;2022-08-16T08:22:48;13.33;;;12.03;;
5491;SDS011;2768;53.540;10.224;2022-08-16T08:28:42;13.80;;;12.40;;
5491;SDS011;2768;53.540;10.224;2022-08-16T08:34:36;13.63;;;10.53;;
5491;SDS011;2768;53.540;10.224;2022-08-16T08:40:31;12.20;;;10.10;;
5491;SDS011;2768;53.540;10.224;2022-08-16T08:46:25;11.67;;;10.20;;
5491;SDS011;2768;53.540;10.224;2022-08-16T08:52:26;12.03;;;10.77;;
5491;SDS011;2768;53.540;10.224;2022-08-16T08:58:32;13.90;;;10.50;;
5491;SDS011;2768;53.540;10.224;2022-08-16T09:04:41;12.10;;;10.50;;
5491;SDS011;2768;53.540;10.224;2022-08-16T09:10:40;13.07;;;11.77;;
5491;SDS011;2768;53.540;10.224;2022-08-16T09:16:37;12.63;;;11.40;;
5491;SDS011;2768;53.540;10.224;2022-08-16T09:22:51;13.03;;;9.53;;
5491;SDS011;2768;53.540;10.224;2022-08-16T09:28:52;12.60;;;11.47;;
5491;SDS011;2768;53.540;10.224;2022-08-16T09:35:08;10.47;;;9.57;;
5491;SDS011;2768;53.540;10.224;2022-08-16T09:41:02;12.80;;;10.60;;
5491;SDS011;2768;53.540;10.224;2022-08-16T09:47:05;12.90;;;8.90;;
5491;SDS011;2768;53.540;10.224;2022-08-16T09:53:02;10.30;;;9.30;;
5491;SDS011;2768;53.540;10.224;2022-08-16T09:58:57;13.03;;;9.53;;
5491;SDS011;2768;53.540;10.224;2022-08-16T10:04:58;11.30;;;10.20;;
5491;SDS011;2768;53.540;10.224;2022-08-16T10:10:53;12.07;;;10.87;;
5491;SDS011;2768;53.540;10.224;2022-08-16T10:17:14;11.90;;;10.30;;
5491;SDS011;2768;53.540;10.224;2022-08-16T10:23:09;10.60;;;9.70;;
5491;SDS011;2768;53.540;10.224;2022-08-16T10:29:09;11.33;;;10.30;;
5491;SDS011;2768;53.540;10.224;2022-08-16T10:35:11;11.40;;;10.30;;
5491;SDS011;2768;53.540;10.224;2022-08-16T10:41:09;9.40;;;8.60;;
5491;SDS011;2768;53.540;10.224;2022-08-16T10:47:08;9.50;;;8.47;;
5491;SDS011;2768;53.540;10.224;2022-08-16T10:53:02;7.83;;;7.10;;
5491;SDS011;2768;53.540;10.224;2022-08-16T10:58:57;7.53;;;6.70;;
5491;SDS011;2768;53.540;10.224;2022-08-16T11:05:14;8.30;;;7.60;;
5491;SDS011;2768;53.540;10.224;2022-08-16T11:11:08;8.27;;;6.47;;
5491;SDS011;2768;53.540;10.224;2022-08-16T11:17:10;6.60;;;6.00;;
5491;SDS011;2768;53.540;10.224;2022-08-16T11:23:06;8.50;;;5.87;;
5491;SDS011;2768;53.540;10.224;2022-08-16T11:29:00;5.70;;;5.27;;
5491;SDS011;2768;53.540;10.224;2022-08-16T11:35:10;7.17;;;6.50;;
5491;SDS011;2768;53.540;10.224;2022-08-16T11:41:08;6.97;;;6.00;;
5491;SDS011;2768;53.540;10.224;2022-08-16T11:47:02;6.57;;;5.10;;
5491;SDS011;2768;53.540;10.224;2022-08-16T11:52:55;8.37;;;6.00;;
5491;SDS011;2768;53.540;10.224;2022-08-16T11:58:54;6.70;;;6.00;;
5491;SDS011;2768;53.540;10.224;2022-08-16T12:04:47;6.20;;;5.70;;
5491;SDS011;2768;53.540;10.224;2022-08-16T12:10:43;7.43;;;6.70;;
5491;SDS011;2768;53.540;10.224;2022-08-16T12:16:38;7.07;;;5.63;;
5491;SDS011;2768;53.540;10.224;2022-08-16T12:22:39;5.20;;;4.70;;
5491;SDS011;2768;53.540;10.224;2022-08-16T12:28:33;4.37;;;4.07;;
5491;SDS011;2768;53.540;10.224;2022-08-16T12:34:48;3.50;;;3.20;;
5491;SDS011;2768;53.540;10.224;2022-08-16T12:40:46;3.73;;;3.43;;
5491;SDS011;2768;53.540;10.224;2022-08-16T12:46:47;4.33;;;3.93;;
5491;SDS011;2768;53.540;10.224;2022-08-16T12:53:06;4.87;;;4.40;;
5491;SDS011;2768;53.540;10.224;2022-08-16T12:59:02;6.30;;;5.37;;
5491;SDS011;2768;53.540;10.224;2022-08-16T13:05:01;4.87;;;4.47;;
5491;SDS011;2768;53.540;10.224;2022-08-16T13:10:59;5.07;;;4.60;;
5491;SDS011;2768;53.540;10.224;2022-08-16T13:16:58;6.07;;;5.03;;
5491;SDS011;2768;53.540;10.224;2022-08-16T13:22:57;5.10;;;4.67;;
5491;SDS011;2768;53.540;10.224;2022-08-16T13:28:55;6.00;;;5.30;;
5491;SDS011;2768;53.540;10.224;2022-08-16T13:34:49;5.03;;;4.73;;
5491;SDS011;2768;53.540;10.224;2022-08-16T13:40:42;7.43;;;4.97;;
5491;SDS011;2768;53.540;10.224;2022-08-16T13:46:38;8.33;;;5.90;;
5491;SDS011;2768;53.540;10.224;2022-08-16T13:52:32;9.33;;;5.20;;
5491;SDS011;2768;53.540;10.224;2022-08-16T13:58:30;5.70;;;5.10;;
5491;SDS011;2768;53.540;10.224;2022-08-16T14:04:42;5.60;;;5.20;;
5491;SDS011;2768;53.540;10.224;2022-08-16T14:10:36;6.17;;;5.57;;
5491;SDS011;2768;53.540;10.224;2022-08-16T14:16:29;6.40;;;5.10;;
5491;SDS011;2768;53.540;10.224;2022-08-16T14:22:26;6.40;;;5.80;;
5491;SDS011;2768;53.540;10.224;2022-08-16T14:28:35;6.73;;;5.30;;
5491;SDS011;2768;53.540;10.224;2022-08-16T14:34:28;5.53;;;5.00;;
5491;SDS011;2768;53.540;10.224;2022-08-16T14:40:23;6.33;;;4.67;;
5491;SDS011;2768;53.540;10.224;2022-08-16T14:46:19;5.00;;;4.50;;
5491;SDS011;2768;53.540;10.224;2022-08-16T14:52:15;4.40;;;4.00;;
5491;SDS011;2768;53.540;10.224;2022-08-16T14:58:31;5.60;;;5.00;;
5491;SDS011;2768;53.540;10.224;2022-08-16T15:04:31;5.27;;;4.67;;
5491;SDS011;2768;53.540;10.224;2022-08-16T15:10:39;4.80;;;4.40;;
5491;SDS011;2768;53.540;10.224;2022-08-16T15:22:37;5.53;;;5.03;;
5491;SDS011;2768;53.540;10.224;2022-08-16T15:28:32;5.00;;;4.60;;
5491;SDS011;2768;53.540;10.224;2022-08-16T15:34:30;6.73;;;4.63;;
5491;SDS011;2768;53.540;10.224;2022-08-16T15:40:24;5.07;;;4.57;;
5491;SDS011;2768;53.540;10.224;2022-08-16T15:46:26;6.30;;;5.27;;
5491;SDS011;2768;53.540;10.224;2022-08-16T15:52:41;4.37;;;3.97;;
5491;SDS011;2768;53.540;10.224;2022-08-16T15:58:35;5.47;;;5.03;;
5491;SDS011;2768;53.540;10.224;2022-08-16T16:04:29;4.80;;;4.47;;
5491;SDS011;2768;53.540;10.224;2022-08-16T16:10:25;6.13;;;4.70;;
5491;SDS011;2768;53.540;10.224;2022-08-16T16:16:20;5.50;;;5.00;;
5491;SDS011;2768;53.540;10.224;2022-08-16T16:22:13;5.83;;;4.60;;
5491;SDS011;2768;53.540;10.224;2022-08-16T16:28:09;6.03;;;5.50;;
5491;SDS011;2768;53.540;10.224;2022-08-16T16:34:24;5.57;;;5.17;;
5491;SDS011;2768;53.540;10.224;2022-08-16T16:40:26;6.07;;;5.47;;
5491;SDS011;2768;53.540;10.224;2022-08-16T16:46:27;5.90;;;5.30;;
5491;SDS011;2768;53.540;10.224;2022-08-16T16:52:34;5.90;;;5.33;;
5491;SDS011;2768;53.540;10.224;2022-08-16T16:58:35;6.47;;;5.03;;
5491;SDS011;2768;53.540;10.224;2022-08-16T17:04:48;6.40;;;5.07;;
5491;SDS011;2768;53.540;10.224;2022-08-16T17:10:43;5.80;;;5.20;;
5491;SDS011;2768;53.540;10.224;2022-08-16T17:16:40;5.90;;;5.30;;
5491;SDS011;2768;53.540;10.224;2022-08-16T17:22:39;6.23;;;5.73;;
5491;SDS011;2768;53.540;10.224;2022-08-16T17:28:34;8.40;;;7.30;;
5491;SDS011;2768;53.540;10.224;2022-08-16T17:34:48;8.10;;;7.47;;
5491;SDS011;2768;53.540;10.224;2022-08-16T17:40:44;8.70;;;7.90;;
5491;SDS011;2768;53.540;10.224;2022-08-16T17:46:49;8.40;;;7.67;;
5491;SDS011;2768;53.540;10.224;2022-08-16T17:52:46;11.40;;;10.50;;
5491;SDS011;2768;53.540;10.224;2022-08-16T17:58:42;9.87;;;8.97;;
5491;SDS011;2768;53.540;10.224;2022-08-16T18:04:36;10.43;;;8.37;;
5491;SDS011;2768;53.540;10.224;2022-08-16T18:10:41;8.90;;;8.20;;
5491;SDS011;2768;53.540;10.224;2022-08-16T18:16:38;9.10;;;8.33;;
5491;SDS011;2768;53.540;10.224;2022-08-16T18:22:32;8.30;;;7.60;;
5491;SDS011;2768;53.540;10.224;2022-08-16T18:28:26;8.53;;;7.83;;
5491;SDS011;2768;53.540;10.224;2022-08-16T18:34:23;9.20;;;8.40;;
5491;SDS011;2768;53.540;10.224;2022-08-16T18:40:16;7.63;;;6.93;;
5491;SDS011;2768;53.540;10.224;2022-08-16T18:46:09;9.60;;;8.80;;
5491;SDS011;2768;53.540;10.224;2022-08-16T18:52:04;8.83;;;8.13;;
5491;SDS011;2768;53.540;10.224;2022-08-16T18:57:58;8.63;;;8.03;;
5491;SDS011;2768;53.540;10.224;2022-08-16T19:03:52;10.67;;;9.57;;
5491;SDS011;2768;53.540;10.224;2022-08-16T19:09:53;9.37;;;8.67;;
5491;SDS011;2768;53.540;10.224;2022-08-16T19:15:51;9.20;;;8.40;;
5491;SDS011;2768;53.540;10.224;2022-08-16T19:21:45;9.70;;;8.00;;
5491;SDS011;2768;53.540;10.224;2022-08-16T19:27:40;7.80;;;7.30;;
5491;SDS011;2768;53.540;10.224;2022-08-16T19:33:33;9.17;;;8.37;;
5491;SDS011;2768;53.540;10.224;2022-08-16T19:39:27;8.20;;;7.50;;
5491;SDS011;2768;53.540;10.224;2022-08-16T19:45:24;8.97;;;8.27;;
5491;SDS011;2768;53.540;10.224;2022-08-16T19:51:18;9.80;;;9.00;;
5491;SDS011;2768;53.540;10.224;2022-08-16T19:57:11;10.00;;;9.10;;
5491;SDS011;2768;53.540;10.224;2022-08-16T20:03:10;8.00;;;7.43;;
5491;SDS011;2768;53.540;10.224;2022-08-16T20:09:05;8.37;;;7.67;;
5491;SDS011;2768;53.540;10.224;2022-08-16T20:15:06;9.17;;;8.47;;
5491;SDS011;2768;53.540;10.224;2022-08-16T20:21:02;9.33;;;8.63;;
5491;SDS011;2768;53.540;10.224;2022-08-16T20:26:57;8.70;;;7.93;;
5491;SDS011;2768;53.540;10.224;2022-08-16T20:32:51;8.80;;;8.20;;
5491;SDS011;2768;53.540;10.224;2022-08-16T20:38:45;8.63;;;7.87;;
5491;SDS011;2768;53.540;10.224;2022-08-16T20:44:40;9.77;;;8.80;;
5491;SDS011;2768;53.540;10.224;2022-08-16T20:50:34;9.17;;;8.30;;
5491;SDS011;2768;53.540;10.224;2022-08-16T20:56:29;8.57;;;7.97;;
5491;SDS011;2768;53.540;10.224;2022-08-16T21:02:23;9.50;;;8.60;;
5491;SDS011;2768;53.540;10.224;2022-08-16T21:08:18;9.87;;;8.93;;
5491;SDS011;2768;53.540;10.224;2022-08-16T21:14:33;9.97;;;9.27;;
5491;SDS011;2768;53.540;10.224;2022-08-16T21:20:26;9.90;;;9.10;;
5491;SDS011;2768;53.540;10.224;2022-08-16T21:26:20;11.03;;;9.13;;
5491;SDS011;2768;53.540;10.224;2022-08-16T21:32:17;11.17;;;10.13;;
5491;SDS011;2768;53.540;10.224;2022-08-16T21:38:26;10.30;;;9.33;;
5491;SDS011;2768;53.540;10.224;2022-08-16T21:44:21;10.23;;;9.33;;
5491;SDS011;2768;53.540;10.224;2022-08-16T21:50:26;10.40;;;9.60;;
5491;SDS011;2768;53.540;10.224;2022-08-16T21:56:19;11.10;;;9.87;;
5491;SDS011;2768;53.540;10.224;2022-08-16T22:02:13;10.47;;;9.50;;
5491;SDS011;2768;53.540;10.224;2022-08-16T22:08:10;10.40;;;9.50;;
5491;SDS011;2768;53.540;10.224;2022-08-16T22:14:04;11.30;;;10.30;;
5491;SDS011;2768;53.540;10.224;2022-08-16T22:19:58;9.80;;;9.00;;
5491;SDS011;2768;53.540;10.224;2022-08-16T22:25:53;11.17;;;10.23;;
5491;SDS011;2768;53.540;10.224;2022-08-16T22:31:46;8.30;;;7.70;;
5491;SDS011;2768;53.540;10.224;2022-08-16T22:37:40;10.43;;;9.40;;
5491;SDS011;2768;53.540;10.224;2022-08-16T22:43:54;10.37;;;9.47;;
5491;SDS011;2768;53.540;10.224;2022-08-16T22:49:48;10.30;;;9.50;;
5491;SDS011;2768;53.540;10.224;2022-08-16T22:55:41;10.77;;;9.43;;
5491;SDS011;2768;53.540;10.224;2022-08-16T23:01:35;10.23;;;9.53;;
5491;SDS011;2768;53.540;10.224;2022-08-16T23:07:29;10.77;;;9.90;;
5491;SDS011;2768;53.540;10.224;2022-08-16T23:13:23;10.57;;;9.57;;
5491;SDS011;2768;53.540;10.224;2022-08-16T23:19:18;11.20;;;10.10;;
5491;SDS011;2768;53.540;10.224;2022-08-16T23:25:11;11.20;;;10.30;;
5491;SDS011;2768;53.540;10.224;2022-08-16T23:31:08;10.63;;;9.80;;
5491;SDS011;2768;53.540;10.224;2022-08-16T23:37:04;11.20;;;10.30;;
5491;SDS011;2768;53.540;10.224;2022-08-16T23:42:58;10.70;;;9.80;;
5491;SDS011;2768;53.540;10.224;2022-08-16T23:48:53;10.33;;;9.33;;
5491;SDS011;2768;53.540;10.224;2022-08-16T23:55:08;11.83;;;10.83;;
